Terminal Aerodrome Forecast
Issued by NWS

Home | Current Version | Previous Version | Text Only | Print | Product List | Glossary On
Versions: 1 2 3 4 5 6 7 8 9 10 11 12 13 14
000
FTUS46 KMTR 292349
TAFSJC
TAF
KSJC 292349Z 3000/3024 30015G22KT P6SM FEW050 SCT120 BKN300
     FM300500 31012KT P6SM FEW020 SCT150 BKN300
      TEMPO 3011/3015 BKN015
     FM301800 32016G22KT P6SM FEW040 SCT150=

USA.gov is the U.S. government's official web portal to all federal, state and local government web resources and services.